createdAt,value
2023-01-03T00:00:02.681Z,2.40
2023-01-03T00:00:12.706Z,1.50
2023-01-03T00:00:22.736Z,1.60
2023-01-03T00:00:32.700Z,1.30
2023-01-03T00:00:42.714Z,1.30
2023-01-03T00:00:52.740Z,1.30
2023-01-03T00:01:02.670Z,2.10
2023-01-03T00:01:12.669Z,3.10
2023-01-03T00:01:22.606Z,3.10
2023-01-03T00:01:32.601Z,2.60
2023-01-03T00:01:42.581Z,2.80
2023-01-03T00:01:52.748Z,3.70
2023-01-03T00:02:02.653Z,3.50
2023-01-03T00:02:12.677Z,2.60
2023-01-03T00:02:22.670Z,1.80
2023-01-03T00:02:32.734Z,1.90
2023-01-03T00:02:42.684Z,2.40
2023-01-03T00:02:52.697Z,2.70
2023-01-03T00:03:02.564Z,2.40
2023-01-03T00:03:12.643Z,2.60
2023-01-03T00:03:22.653Z,2.10
2023-01-03T00:03:32.676Z,1.90
2023-01-03T00:03:42.572Z,1.30
2023-01-03T00:03:52.643Z,1.30
2023-01-03T00:04:02.794Z,1.50
2023-01-03T00:04:12.819Z,1.30
2023-01-03T00:04:22.682Z,1.70
2023-01-03T00:04:32.720Z,1.80
2023-01-03T00:04:48.991Z,1.90
2023-01-03T00:04:52.703Z,1.80
2023-01-03T00:05:02.752Z,2.30
2023-01-03T00:05:12.581Z,2.30
2023-01-03T00:05:22.584Z,2.70
2023-01-03T00:05:32.691Z,2.30
2023-01-03T00:05:42.725Z,2.80
2023-01-03T00:05:52.597Z,3.20
2023-01-03T00:06:02.707Z,3.40
2023-01-03T00:06:12.667Z,3.90
2023-01-03T00:06:22.597Z,3.40
2023-01-03T00:06:32.679Z,3.40
2023-01-03T00:06:42.615Z,3.80
2023-01-03T00:06:52.689Z,4.00
2023-01-03T00:07:02.631Z,3.50
2023-01-03T00:07:12.619Z,2.60
2023-01-03T00:07:22.654Z,2.20
2023-01-03T00:07:32.648Z,2.50
2023-01-03T00:07:42.593Z,2.30
2023-01-03T00:07:52.606Z,2.50
2023-01-03T00:08:02.618Z,2.60
2023-01-03T00:08:12.577Z,2.50
2023-01-03T00:08:22.665Z,2.30
2023-01-03T00:08:32.567Z,2.30
2023-01-03T00:08:42.561Z,2.40
2023-01-03T00:08:57.490Z,3.40
2023-01-03T00:09:02.666Z,3.30
2023-01-03T00:09:12.555Z,3.70
2023-01-03T00:09:22.670Z,2.60
2023-01-03T00:09:32.637Z,2.10
2023-01-03T00:09:42.666Z,2.20
2023-01-03T00:09:52.690Z,2.40
2023-01-03T00:10:02.576Z,2.20
2023-01-03T00:10:12.623Z,1.80
2023-01-03T00:10:22.592Z,2.10
2023-01-03T00:10:32.565Z,1.90
2023-01-03T00:10:42.622Z,1.80
2023-01-03T00:10:52.623Z,1.00
2023-01-03T00:11:02.595Z,1.00
2023-01-03T00:11:12.590Z,1.30
2023-01-03T00:11:22.603Z,1.20
2023-01-03T00:11:32.684Z,1.80
2023-01-03T00:11:42.624Z,1.40
2023-01-03T00:11:52.657Z,1.50
2023-01-03T00:12:02.652Z,0.80
2023-01-03T00:12:12.584Z,0.80
2023-01-03T00:12:28.571Z,0.70
2023-01-03T00:12:32.559Z,0.80
2023-01-03T00:12:42.594Z,0.80
2023-01-03T00:12:52.561Z,0.80
2023-01-03T00:13:02.641Z,0.90
2023-01-03T00:13:12.570Z,1.30
2023-01-03T00:13:22.603Z,1.40
2023-01-03T00:13:32.570Z,1.10
2023-01-03T00:13:42.598Z,0.80
2023-01-03T00:13:52.703Z,0.80
2023-01-03T00:14:02.635Z,0.90
2023-01-03T00:14:12.602Z,1.00
2023-01-03T00:14:22.610Z,0.80
2023-01-03T00:14:32.645Z,0.80
2023-01-03T00:14:42.687Z,0.70
2023-01-03T00:14:52.655Z,0.70
2023-01-03T00:15:02.613Z,0.80
2023-01-03T00:15:12.685Z,0.70
2023-01-03T00:15:22.650Z,0.50
2023-01-03T00:15:32.558Z,0.50
2023-01-03T00:15:42.599Z,0.70
2023-01-03T00:15:52.570Z,0.90
2023-01-03T00:16:02.622Z,1.90
2023-01-03T00:16:12.575Z,2.50
2023-01-03T00:16:22.668Z,2.30
2023-01-03T00:16:32.719Z,1.30
2023-01-03T00:16:42.720Z,0.50
2023-01-03T00:16:52.637Z,0.60
2023-01-03T00:17:02.743Z,0.60
2023-01-03T00:17:12.771Z,0.60
2023-01-03T00:17:22.656Z,0.40
2023-01-03T00:17:32.682Z,0.40
2023-01-03T00:17:42.599Z,0.40
2023-01-03T00:17:52.615Z,0.70
2023-01-03T00:18:02.651Z,0.60
2023-01-03T00:18:12.616Z,0.40
2023-01-03T00:18:22.631Z,0.40
2023-01-03T00:18:32.684Z,0.40
2023-01-03T00:18:42.610Z,0.50
2023-01-03T00:18:52.688Z,0.50
2023-01-03T00:19:02.598Z,1.30
2023-01-03T00:19:12.658Z,1.10
2023-01-03T00:19:22.572Z,1.10
2023-01-03T00:19:32.673Z,0.40
2023-01-03T00:19:42.617Z,0.50
2023-01-03T00:19:52.575Z,0.50
2023-01-03T00:20:02.628Z,0.70
2023-01-03T00:20:12.609Z,1.00
2023-01-03T00:20:22.632Z,1.00
2023-01-03T00:20:32.621Z,0.80
2023-01-03T00:20:42.613Z,0.50
2023-01-03T00:20:52.634Z,0.60
2023-01-03T00:21:02.679Z,0.50
2023-01-03T00:21:12.656Z,0.50
2023-01-03T00:21:22.623Z,0.40
2023-01-03T00:21:32.566Z,0.50
2023-01-03T00:21:42.638Z,0.60
2023-01-03T00:21:52.634Z,0.60
2023-01-03T00:22:02.580Z,0.50
2023-01-03T00:22:12.646Z,0.40
2023-01-03T00:22:22.629Z,0.50
2023-01-03T00:22:32.643Z,0.50
2023-01-03T00:22:42.644Z,0.50
2023-01-03T00:22:52.660Z,0.40
2023-01-03T00:23:02.666Z,0.40
2023-01-03T00:23:12.649Z,0.40
2023-01-03T00:23:22.567Z,0.40
2023-01-03T00:23:32.597Z,0.40
2023-01-03T00:23:42.618Z,0.80
2023-01-03T00:23:52.665Z,0.80
2023-01-03T00:24:02.668Z,0.80
2023-01-03T00:24:12.628Z,0.40
2023-01-03T00:24:22.574Z,0.50
2023-01-03T00:24:32.678Z,0.40
2023-01-03T00:24:42.663Z,0.50
2023-01-03T00:24:52.694Z,0.50
2023-01-03T00:25:02.687Z,0.40
2023-01-03T00:25:12.592Z,0.30
2023-01-03T00:25:22.621Z,0.30
2023-01-03T00:25:32.568Z,0.40
2023-01-03T00:25:42.623Z,0.40
2023-01-03T00:25:52.661Z,0.50
2023-01-03T00:26:02.579Z,0.50
2023-01-03T00:26:12.576Z,0.50
2023-01-03T00:26:22.598Z,0.40
2023-01-03T00:26:32.630Z,0.80
2023-01-03T00:26:42.588Z,0.70
2023-01-03T00:26:52.616Z,0.70
2023-01-03T00:27:02.693Z,0.50
2023-01-03T00:27:12.625Z,0.60
2023-01-03T00:27:22.619Z,0.60
2023-01-03T00:27:32.581Z,0.50
2023-01-03T00:27:42.581Z,0.80
2023-01-03T00:27:52.695Z,1.00
2023-01-03T00:28:02.578Z,0.90
2023-01-03T00:28:12.647Z,0.50
2023-01-03T00:28:22.577Z,0.50
2023-01-03T00:28:32.580Z,1.00
2023-01-03T00:28:42.599Z,1.30
2023-01-03T00:28:52.573Z,2.70
2023-01-03T00:29:02.631Z,2.00
2023-01-03T00:29:12.654Z,1.80
2023-01-03T00:29:22.570Z,0.70
2023-01-03T00:29:32.572Z,0.70
2023-01-03T00:29:42.580Z,0.70
2023-01-03T00:29:52.595Z,0.40
2023-01-03T00:30:02.624Z,0.50
2023-01-03T00:30:12.686Z,0.50
2023-01-03T00:30:22.660Z,0.60
2023-01-03T00:30:32.618Z,0.40
2023-01-03T00:30:42.615Z,0.40
2023-01-03T00:30:52.623Z,0.40
2023-01-03T00:31:02.671Z,0.40
2023-01-03T00:31:12.693Z,0.30
2023-01-03T00:31:22.709Z,0.40
2023-01-03T00:31:32.636Z,0.70
2023-01-03T00:31:42.582Z,0.60
2023-01-03T00:31:52.615Z,0.60
2023-01-03T00:32:02.611Z,0.40
2023-01-03T00:32:12.623Z,1.50
2023-01-03T00:32:22.628Z,1.50
2023-01-03T00:32:32.646Z,1.80
2023-01-03T00:32:42.637Z,0.70
2023-01-03T00:32:52.645Z,0.60
2023-01-03T00:33:02.681Z,0.30
2023-01-03T00:33:12.645Z,0.30
2023-01-03T00:33:22.584Z,0.30
2023-01-03T00:33:32.568Z,0.30
2023-01-03T00:33:42.597Z,0.50
2023-01-03T00:33:52.666Z,0.40
2023-01-03T00:34:02.680Z,0.40
2023-01-03T00:34:12.625Z,0.50
2023-01-03T00:34:22.598Z,0.60
2023-01-03T00:34:32.613Z,0.70
2023-01-03T00:34:42.596Z,1.60
2023-01-03T00:34:52.604Z,1.50
2023-01-03T00:35:05.384Z,1.50
2023-01-03T00:35:12.662Z,0.40
2023-01-03T00:35:22.646Z,0.60
2023-01-03T00:35:32.590Z,0.90
2023-01-03T00:35:42.653Z,0.90
2023-01-03T00:35:52.654Z,1.00
2023-01-03T00:36:02.625Z,0.90
2023-01-03T00:36:12.678Z,2.40
2023-01-03T00:36:22.625Z,1.90
2023-01-03T00:36:32.587Z,1.70
2023-01-03T00:36:42.623Z,0.30
2023-01-03T00:36:52.682Z,0.30
2023-01-03T00:37:02.574Z,0.40
2023-01-03T00:37:12.665Z,0.40
2023-01-03T00:37:22.606Z,0.50
2023-01-03T00:37:32.649Z,0.50
2023-01-03T00:37:42.619Z,0.40
2023-01-03T00:37:52.608Z,0.30
2023-01-03T00:38:02.595Z,0.20
2023-01-03T00:38:12.676Z,0.20
2023-01-03T00:38:22.607Z,0.30
2023-01-03T00:38:32.559Z,0.30
2023-01-03T00:38:42.660Z,0.70
2023-01-03T00:38:52.579Z,0.80
2023-01-03T00:39:02.619Z,0.90
2023-01-03T00:39:12.659Z,0.60
2023-01-03T00:39:22.598Z,0.70
2023-01-03T00:39:32.675Z,0.60
2023-01-03T00:39:42.564Z,0.50
2023-01-03T00:39:52.719Z,0.50
2023-01-03T00:40:02.581Z,1.00
2023-01-03T00:40:12.671Z,1.00
2023-01-03T00:40:22.674Z,1.10
2023-01-03T00:40:32.577Z,0.40
2023-01-03T00:40:42.561Z,0.40
2023-01-03T00:40:52.641Z,0.30
2023-01-03T00:41:02.588Z,0.30
2023-01-03T00:41:12.583Z,0.40
2023-01-03T00:41:22.625Z,0.40
2023-01-03T00:41:32.623Z,0.40
2023-01-03T00:41:42.585Z,0.40
2023-01-03T00:41:52.593Z,0.50
2023-01-03T00:42:02.700Z,0.60
2023-01-03T00:42:12.580Z,0.70
2023-01-03T00:42:22.700Z,0.40
2023-01-03T00:42:32.581Z,0.60
2023-01-03T00:42:42.574Z,0.50
2023-01-03T00:42:52.657Z,0.50
2023-01-03T00:43:02.580Z,0.30
2023-01-03T00:43:12.587Z,0.40
2023-01-03T00:43:22.584Z,0.40
2023-01-03T00:43:32.630Z,0.50
2023-01-03T00:43:42.645Z,0.60
2023-01-03T00:43:52.573Z,0.50
2023-01-03T00:44:02.604Z,0.40
2023-01-03T00:44:12.604Z,0.30
2023-01-03T00:44:22.688Z,0.30
2023-01-03T00:44:32.569Z,0.40
2023-01-03T00:44:42.692Z,0.40
2023-01-03T00:44:52.559Z,0.50
2023-01-03T00:45:02.653Z,1.50
2023-01-03T00:45:17.518Z,1.60
2023-01-03T00:45:25.548Z,1.50
2023-01-03T00:45:35.494Z,0.40
2023-01-03T00:45:42.680Z,0.40
2023-01-03T00:45:52.677Z,0.40
2023-01-03T00:46:02.692Z,0.30
2023-01-03T00:46:12.710Z,0.80
2023-01-03T00:46:22.796Z,0.70
2023-01-03T00:46:32.664Z,0.70
2023-01-03T00:46:42.701Z,0.30
2023-01-03T00:46:52.631Z,0.30
2023-01-03T00:47:02.622Z,0.30
2023-01-03T00:47:12.619Z,1.20
2023-01-03T00:47:22.691Z,1.50
2023-01-03T00:47:32.652Z,1.40
2023-01-03T00:47:42.569Z,1.40
2023-01-03T00:47:52.632Z,1.20
2023-01-03T00:48:02.637Z,1.10
2023-01-03T00:48:12.616Z,0.30
2023-01-03T00:48:22.664Z,0.40
2023-01-03T00:48:32.731Z,0.40
2023-01-03T00:48:42.688Z,0.50
2023-01-03T00:48:52.677Z,0.50
2023-01-03T00:49:02.631Z,0.50
2023-01-03T00:49:12.673Z,0.40
2023-01-03T00:49:22.667Z,0.40
2023-01-03T00:49:32.567Z,0.50
2023-01-03T00:49:42.655Z,0.50
2023-01-03T00:49:52.628Z,0.40
2023-01-03T00:50:02.681Z,0.30
2023-01-03T00:50:12.599Z,0.70
2023-01-03T00:50:22.641Z,1.00
2023-01-03T00:50:32.662Z,1.00
2023-01-03T00:50:42.684Z,0.50
2023-01-03T00:50:52.590Z,0.40
2023-01-03T00:51:02.565Z,0.90
2023-01-03T00:51:12.681Z,1.80
2023-01-03T00:51:22.744Z,1.80
2023-01-03T00:51:32.646Z,1.30
2023-01-03T00:51:42.578Z,0.70
2023-01-03T00:51:52.604Z,0.80
2023-01-03T00:52:02.576Z,0.60
2023-01-03T00:52:12.622Z,0.60
2023-01-03T00:52:22.620Z,0.90
2023-01-03T00:52:32.579Z,1.00
2023-01-03T00:52:42.707Z,0.80
2023-01-03T00:52:52.576Z,1.10
2023-01-03T00:53:02.591Z,1.10
2023-01-03T00:53:12.586Z,1.60
2023-01-03T00:53:22.582Z,1.00
2023-01-03T00:53:32.628Z,1.00
2023-01-03T00:53:42.569Z,0.60
2023-01-03T00:53:52.589Z,0.70
2023-01-03T00:54:02.586Z,0.60
2023-01-03T00:54:12.687Z,0.60
2023-01-03T00:54:22.590Z,0.50
2023-01-03T00:54:32.607Z,0.60
2023-01-03T00:54:42.572Z,0.50
2023-01-03T00:54:52.639Z,0.50
2023-01-03T00:55:02.626Z,0.40
2023-01-03T00:55:12.710Z,0.60
2023-01-03T00:55:22.590Z,0.60
2023-01-03T00:55:32.707Z,0.60
2023-01-03T00:55:42.685Z,0.50
2023-01-03T00:55:52.572Z,0.50
2023-01-03T00:56:02.562Z,0.60
2023-01-03T00:56:12.587Z,0.60
2023-01-03T00:56:22.689Z,0.50
2023-01-03T00:56:32.693Z,0.50
2023-01-03T00:56:42.683Z,1.30
2023-01-03T00:56:52.611Z,1.50
2023-01-03T00:57:02.665Z,1.60
2023-01-03T00:57:12.699Z,0.60
2023-01-03T00:57:22.636Z,0.60
2023-01-03T00:57:32.619Z,0.80
2023-01-03T00:57:42.563Z,1.10
2023-01-03T00:57:52.685Z,1.40
2023-01-03T00:58:02.585Z,1.10
2023-01-03T00:58:12.669Z,1.40
2023-01-03T00:58:22.606Z,1.30
2023-01-03T00:58:32.665Z,1.30
2023-01-03T00:58:42.713Z,0.70
2023-01-03T00:58:52.596Z,0.70
2023-01-03T00:59:02.602Z,1.20
2023-01-03T00:59:12.701Z,1.30
2023-01-03T00:59:22.653Z,1.30
2023-01-03T00:59:32.610Z,0.70
2023-01-03T00:59:42.705Z,0.70
2023-01-03T00:59:52.690Z,0.60
2023-01-03T01:00:02.635Z,0.50
2023-01-03T01:00:12.696Z,0.60
2023-01-03T01:00:22.649Z,0.60
2023-01-03T01:00:32.561Z,0.60
2023-01-03T01:00:42.670Z,1.10
2023-01-03T01:00:52.606Z,1.50
2023-01-03T01:01:02.643Z,1.40
2023-01-03T01:01:12.706Z,1.00
2023-01-03T01:01:22.697Z,0.60
2023-01-03T01:01:38.035Z,0.50
2023-01-03T01:01:47.273Z,1.30
2023-01-03T01:01:52.738Z,4.00
2023-01-03T01:02:02.704Z,4.60
2023-01-03T01:02:12.793Z,3.80
2023-01-03T01:02:22.771Z,1.40
2023-01-03T01:02:32.940Z,1.20
2023-01-03T01:02:43.076Z,1.10
2023-01-03T01:02:52.978Z,0.90
2023-01-03T01:03:02.829Z,0.90
2023-01-03T01:03:12.683Z,0.80
2023-01-03T01:03:22.791Z,0.80
2023-01-03T01:03:32.662Z,0.60
2023-01-03T01:03:42.640Z,0.50
2023-01-03T01:03:52.711Z,0.50
2023-01-03T01:04:02.775Z,0.50
2023-01-03T01:04:12.688Z,0.60
2023-01-03T01:04:22.591Z,0.50
2023-01-03T01:04:32.675Z,0.50
2023-01-03T01:04:42.620Z,1.60
2023-01-03T01:04:52.622Z,2.00
2023-01-03T01:05:02.632Z,2.00
2023-01-03T01:05:12.648Z,0.70
2023-01-03T01:05:22.627Z,0.60
2023-01-03T01:05:32.609Z,0.70
2023-01-03T01:05:42.686Z,0.70
2023-01-03T01:05:52.659Z,0.70
2023-01-03T01:06:02.587Z,0.70
2023-01-03T01:06:12.603Z,1.30
2023-01-03T01:06:22.675Z,1.20
2023-01-03T01:06:32.648Z,1.70
2023-01-03T01:06:42.689Z,1.10
2023-01-03T01:06:52.579Z,1.00
2023-01-03T01:07:02.659Z,0.70
2023-01-03T01:07:12.659Z,0.80
2023-01-03T01:07:22.679Z,1.30
2023-01-03T01:07:32.628Z,1.00
2023-01-03T01:07:42.656Z,0.90
2023-01-03T01:07:52.640Z,0.60
2023-01-03T01:08:02.637Z,0.60
2023-01-03T01:08:12.579Z,0.70
2023-01-03T01:08:22.661Z,1.00
2023-01-03T01:08:32.603Z,1.00
2023-01-03T01:08:42.599Z,0.80
2023-01-03T01:08:52.673Z,0.60
2023-01-03T01:09:02.665Z,0.90
2023-01-03T01:09:12.658Z,1.30
2023-01-03T01:09:22.593Z,1.30
2023-01-03T01:09:32.678Z,0.80
2023-01-03T01:09:42.597Z,0.80
2023-01-03T01:09:52.691Z,0.80
2023-01-03T01:10:02.619Z,1.10
2023-01-03T01:10:12.606Z,0.80
2023-01-03T01:10:22.676Z,0.80
2023-01-03T01:10:32.643Z,0.70
2023-01-03T01:10:42.671Z,0.60
2023-01-03T01:10:52.680Z,0.60
2023-01-03T01:11:02.572Z,0.50
2023-01-03T01:11:12.628Z,0.70
2023-01-03T01:11:22.660Z,0.80
2023-01-03T01:11:32.574Z,1.00
2023-01-03T01:11:42.664Z,0.80
2023-01-03T01:11:52.610Z,0.80
2023-01-03T01:12:02.591Z,0.60
2023-01-03T01:12:12.561Z,0.60
2023-01-03T01:12:22.662Z,1.80
2023-01-03T01:12:32.562Z,1.80
2023-01-03T01:12:42.640Z,2.30
2023-01-03T01:12:52.576Z,1.00
2023-01-03T01:13:02.644Z,1.10
2023-01-03T01:13:12.581Z,0.60
2023-01-03T01:13:22.653Z,0.70
2023-01-03T01:13:32.605Z,0.70
2023-01-03T01:13:42.580Z,0.60
2023-01-03T01:13:52.624Z,0.60
2023-01-03T01:14:02.557Z,0.50
2023-01-03T01:14:12.571Z,0.60
2023-01-03T01:14:22.617Z,0.80
2023-01-03T01:14:32.578Z,0.80
2023-01-03T01:14:42.648Z,1.80
2023-01-03T01:14:52.607Z,1.60
2023-01-03T01:15:02.599Z,1.70
2023-01-03T01:15:12.685Z,0.90
2023-01-03T01:15:22.586Z,1.40
2023-01-03T01:15:32.657Z,1.50
2023-01-03T01:15:42.685Z,1.50
2023-01-03T01:15:52.730Z,1.10
2023-01-03T01:16:02.761Z,2.20
2023-01-03T01:16:12.772Z,1.80
2023-01-03T01:16:22.713Z,1.80
2023-01-03T01:16:32.712Z,0.70
2023-01-03T01:16:42.645Z,0.80
2023-01-03T01:16:52.712Z,0.80
2023-01-03T01:17:02.611Z,0.60
2023-01-03T01:17:16.560Z,0.70
2023-01-03T01:17:23.223Z,0.90
2023-01-03T01:17:32.670Z,0.90
2023-01-03T01:17:42.666Z,0.80
2023-01-03T01:17:52.610Z,0.70
2023-01-03T01:18:02.578Z,0.60
2023-01-03T01:18:12.582Z,1.40
2023-01-03T01:18:22.659Z,1.30
2023-01-03T01:18:32.634Z,1.50
2023-01-03T01:18:42.675Z,1.20
2023-01-03T01:18:52.688Z,1.20
2023-01-03T01:19:02.595Z,1.00
2023-01-03T01:19:12.692Z,0.70
2023-01-03T01:19:22.579Z,0.70
2023-01-03T01:19:32.569Z,0.70
2023-01-03T01:19:42.620Z,0.70
2023-01-03T01:19:52.642Z,0.70
2023-01-03T01:20:02.697Z,0.80
2023-01-03T01:20:12.569Z,1.10
2023-01-03T01:20:22.665Z,1.00
2023-01-03T01:20:32.659Z,1.00
2023-01-03T01:20:42.563Z,0.80
2023-01-03T01:20:52.630Z,0.80
2023-01-03T01:21:02.620Z,0.80
2023-01-03T01:21:12.581Z,0.80
2023-01-03T01:21:22.566Z,1.30
2023-01-03T01:21:32.659Z,1.20
2023-01-03T01:21:42.592Z,1.30
2023-01-03T01:21:52.642Z,0.80
2023-01-03T01:22:02.622Z,0.90
2023-01-03T01:22:12.595Z,0.80
2023-01-03T01:22:22.593Z,1.10
2023-01-03T01:22:32.663Z,0.80
2023-01-03T01:22:42.623Z,0.90
2023-01-03T01:22:52.602Z,0.60
2023-01-03T01:23:02.579Z,0.70
2023-01-03T01:23:12.595Z,0.90
2023-01-03T01:23:22.639Z,0.80
2023-01-03T01:23:32.575Z,1.40
2023-01-03T01:23:42.574Z,1.60
2023-01-03T01:23:52.605Z,1.70
2023-01-03T01:24:02.601Z,1.10
2023-01-03T01:24:17.432Z,0.90
2023-01-03T01:24:22.692Z,1.20
2023-01-03T01:24:32.653Z,1.20
2023-01-03T01:24:42.665Z,1.20
2023-01-03T01:24:52.602Z,1.00
2023-01-03T01:25:02.708Z,0.80
2023-01-03T01:25:12.620Z,2.20
2023-01-03T01:25:22.655Z,2.20
2023-01-03T01:25:32.674Z,2.20
2023-01-03T01:25:42.572Z,0.70
2023-01-03T01:25:52.596Z,0.70
2023-01-03T01:26:02.618Z,0.60
2023-01-03T01:26:12.676Z,0.80
2023-01-03T01:26:22.686Z,1.90
2023-01-03T01:26:32.675Z,3.60
2023-01-03T01:26:42.601Z,3.60
2023-01-03T01:26:52.603Z,2.40
2023-01-03T01:27:02.626Z,0.90
2023-01-03T01:27:12.675Z,0.80
2023-01-03T01:27:22.675Z,0.60
2023-01-03T01:27:32.664Z,0.80
2023-01-03T01:27:42.580Z,0.90
2023-01-03T01:27:52.572Z,1.00
2023-01-03T01:28:02.675Z,0.80
2023-01-03T01:28:12.645Z,0.70
2023-01-03T01:28:22.637Z,0.80
2023-01-03T01:28:32.705Z,0.90
2023-01-03T01:28:42.678Z,1.10
2023-01-03T01:28:52.624Z,1.00
2023-01-03T01:29:02.693Z,1.00
2023-01-03T01:29:12.671Z,1.00
2023-01-03T01:29:22.673Z,1.00
2023-01-03T01:29:32.648Z,0.90
2023-01-03T01:29:42.606Z,0.70
2023-01-03T01:29:52.665Z,0.70
2023-01-03T01:30:02.640Z,0.60
2023-01-03T01:30:12.688Z,1.00
2023-01-03T01:30:22.659Z,1.50
2023-01-03T01:30:32.660Z,1.60
2023-01-03T01:30:42.678Z,2.40
2023-01-03T01:30:52.681Z,1.90
2023-01-03T01:31:02.745Z,2.00
2023-01-03T01:31:12.645Z,0.70
2023-01-03T01:31:22.643Z,0.70
2023-01-03T01:31:32.637Z,0.70
2023-01-03T01:31:42.714Z,0.80
2023-01-03T01:31:52.660Z,1.00
2023-01-03T01:32:02.692Z,1.10
2023-01-03T01:32:12.597Z,1.00
2023-01-03T01:32:22.696Z,1.00
2023-01-03T01:32:32.691Z,1.10
2023-01-03T01:32:42.627Z,0.70
2023-01-03T01:32:52.621Z,1.20
2023-01-03T01:33:02.695Z,1.20
2023-01-03T01:33:12.659Z,1.30
2023-01-03T01:33:22.628Z,0.90
2023-01-03T01:33:32.662Z,1.80
2023-01-03T01:33:42.610Z,2.00
2023-01-03T01:33:52.677Z,1.60
2023-01-03T01:34:02.646Z,0.70
2023-01-03T01:34:12.650Z,0.70
2023-01-03T01:34:22.578Z,0.80
2023-01-03T01:34:32.652Z,1.10
2023-01-03T01:34:42.715Z,1.00
2023-01-03T01:34:52.698Z,0.80
2023-01-03T01:35:02.679Z,0.70
2023-01-03T01:35:12.606Z,1.00
2023-01-03T01:35:22.654Z,1.40
2023-01-03T01:35:32.635Z,1.60
2023-01-03T01:35:42.678Z,1.30
2023-01-03T01:35:52.596Z,0.90
2023-01-03T01:36:02.578Z,0.70
2023-01-03T01:36:12.584Z,0.70
2023-01-03T01:36:22.591Z,1.00
2023-01-03T01:36:32.708Z,1.00
2023-01-03T01:36:42.577Z,1.20
2023-01-03T01:36:52.658Z,0.80
2023-01-03T01:37:02.593Z,1.20
2023-01-03T01:37:12.655Z,1.60
2023-01-03T01:37:22.674Z,1.50
2023-01-03T01:37:32.588Z,1.20
2023-01-03T01:37:42.587Z,1.30
2023-01-03T01:37:52.587Z,1.70
2023-01-03T01:38:02.561Z,1.70
2023-01-03T01:38:12.613Z,1.00
2023-01-03T01:38:22.629Z,0.90
2023-01-03T01:38:32.705Z,1.20
2023-01-03T01:38:42.650Z,2.40
2023-01-03T01:38:52.657Z,2.50
2023-01-03T01:39:02.642Z,2.00
2023-01-03T01:39:12.675Z,1.10
2023-01-03T01:39:22.568Z,1.80
2023-01-03T01:39:32.675Z,1.90
2023-01-03T01:39:42.594Z,1.90
2023-01-03T01:39:52.608Z,2.00
2023-01-03T01:40:02.685Z,2.10
2023-01-03T01:40:12.635Z,2.30
2023-01-03T01:40:22.574Z,1.60
2023-01-03T01:40:32.718Z,2.70
2023-01-03T01:40:42.690Z,2.40
2023-01-03T01:40:52.671Z,2.20
2023-01-03T01:41:02.572Z,1.00
2023-01-03T01:41:12.667Z,1.10
2023-01-03T01:41:22.614Z,1.20
2023-01-03T01:41:32.662Z,1.10
2023-01-03T01:41:42.636Z,1.00
2023-01-03T01:41:52.651Z,1.00
2023-01-03T01:42:02.614Z,1.00
2023-01-03T01:42:18.287Z,1.50
2023-01-03T01:42:27.378Z,1.40
2023-01-03T01:42:32.633Z,1.80
2023-01-03T01:42:42.694Z,1.10
2023-01-03T01:42:52.666Z,1.10
2023-01-03T01:43:02.711Z,1.00
2023-01-03T01:43:12.639Z,1.20
2023-01-03T01:43:22.635Z,1.70
2023-01-03T01:43:32.610Z,1.60
2023-01-03T01:43:42.575Z,1.40
2023-01-03T01:43:52.604Z,0.90
2023-01-03T01:44:02.676Z,1.00
2023-01-03T01:44:12.704Z,0.90
2023-01-03T01:44:22.571Z,1.30
2023-01-03T01:44:32.696Z,1.40
2023-01-03T01:44:42.606Z,1.40
2023-01-03T01:44:52.588Z,0.90
2023-01-03T01:45:02.604Z,0.90
2023-01-03T01:45:12.652Z,1.00
2023-01-03T01:45:22.665Z,2.30
2023-01-03T01:45:32.703Z,2.10
2023-01-03T01:45:42.639Z,2.20
2023-01-03T01:45:52.580Z,0.80
2023-01-03T01:46:02.715Z,1.10
2023-01-03T01:46:12.726Z,1.00
2023-01-03T01:46:22.704Z,1.00
2023-01-03T01:46:32.741Z,1.10
2023-01-03T01:46:42.740Z,0.90
2023-01-03T01:46:52.722Z,1.00
2023-01-03T01:47:02.572Z,0.80
2023-01-03T01:47:12.659Z,1.00
2023-01-03T01:47:22.656Z,1.00
2023-01-03T01:47:32.590Z,0.80
2023-01-03T01:47:42.629Z,0.80
2023-01-03T01:47:52.695Z,1.10
2023-01-03T01:48:02.623Z,1.20
2023-01-03T01:48:12.636Z,1.00
2023-01-03T01:48:22.591Z,0.80
2023-01-03T01:48:32.584Z,0.70
2023-01-03T01:48:42.640Z,0.80
2023-01-03T01:48:52.585Z,1.00
2023-01-03T01:49:02.596Z,1.00
2023-01-03T01:49:12.631Z,1.40
2023-01-03T01:49:22.562Z,1.30
2023-01-03T01:49:32.646Z,1.30
2023-01-03T01:49:42.675Z,0.90
2023-01-03T01:49:52.669Z,1.00
2023-01-03T01:50:02.672Z,0.90
2023-01-03T01:50:12.683Z,0.80
2023-01-03T01:50:22.620Z,0.80
2023-01-03T01:50:32.586Z,1.30
2023-01-03T01:50:42.653Z,1.30
2023-01-03T01:50:52.591Z,1.70
2023-01-03T01:51:02.660Z,1.20
2023-01-03T01:51:12.583Z,1.20
2023-01-03T01:51:22.691Z,0.90
2023-01-03T01:51:32.610Z,0.90
2023-01-03T01:51:42.616Z,1.60
2023-01-03T01:51:52.625Z,1.60
2023-01-03T01:52:02.610Z,2.60
2023-01-03T01:52:12.615Z,1.70
2023-01-03T01:52:22.691Z,4.00
2023-01-03T01:52:32.604Z,3.00
2023-01-03T01:52:42.684Z,3.00
2023-01-03T01:52:52.636Z,0.90
2023-01-03T01:53:02.766Z,0.80
2023-01-03T01:53:12.710Z,0.80
2023-01-03T01:53:22.643Z,0.90
2023-01-03T01:53:32.590Z,0.80
2023-01-03T01:53:42.703Z,1.00
2023-01-03T01:53:52.569Z,0.80
2023-01-03T01:54:02.609Z,0.90
2023-01-03T01:54:12.570Z,1.00
2023-01-03T01:54:22.626Z,1.00
2023-01-03T01:54:32.554Z,1.10
2023-01-03T01:54:42.562Z,2.30
2023-01-03T01:54:52.700Z,2.30
2023-01-03T01:55:02.686Z,2.20
2023-01-03T01:55:12.620Z,0.80
2023-01-03T01:55:22.620Z,1.00
2023-01-03T01:55:32.686Z,1.10
2023-01-03T01:55:42.644Z,1.20
2023-01-03T01:55:52.583Z,1.50
2023-01-03T01:56:02.601Z,2.50
2023-01-03T01:56:12.669Z,3.20
2023-01-03T01:56:22.680Z,2.50
2023-01-03T01:56:32.565Z,1.50
2023-01-03T01:56:42.623Z,1.10
2023-01-03T01:56:52.738Z,1.00
2023-01-03T01:57:02.578Z,1.10
2023-01-03T01:57:12.612Z,1.20
2023-01-03T01:57:22.605Z,1.20
2023-01-03T01:57:32.582Z,1.20
2023-01-03T01:57:42.621Z,2.10
2023-01-03T01:57:52.599Z,2.50
2023-01-03T01:58:02.588Z,2.50
2023-01-03T01:58:12.778Z,1.20
2023-01-03T01:58:22.632Z,0.90
2023-01-03T01:58:32.627Z,0.80
2023-01-03T01:58:42.676Z,1.50
2023-01-03T01:58:52.669Z,1.50
2023-01-03T01:59:02.642Z,1.50
2023-01-03T01:59:12.647Z,1.10
2023-01-03T01:59:22.691Z,1.00
2023-01-03T01:59:32.584Z,1.00
2023-01-03T01:59:42.617Z,0.90
2023-01-03T01:59:52.578Z,1.10
2023-01-03T02:00:02.644Z,2.10
2023-01-03T02:00:12.587Z,2.30
2023-01-03T02:00:22.601Z,2.90
2023-01-03T02:00:32.627Z,1.70
2023-01-03T02:00:42.652Z,2.60
2023-01-03T02:00:52.641Z,2.20
2023-01-03T02:01:02.682Z,2.40
2023-01-03T02:01:12.824Z,1.30
2023-01-03T02:01:22.739Z,1.40
2023-01-03T02:01:32.782Z,1.20
2023-01-03T02:01:42.689Z,1.70
2023-01-03T02:01:52.921Z,1.50
2023-01-03T02:02:02.922Z,2.00
2023-01-03T02:02:12.648Z,1.70
2023-01-03T02:02:22.923Z,1.70
2023-01-03T02:02:32.761Z,1.30
2023-01-03T02:02:42.923Z,1.30
2023-01-03T02:02:52.803Z,1.20
2023-01-03T02:03:02.785Z,1.20
2023-01-03T02:03:12.830Z,1.30
2023-01-03T02:03:22.655Z,1.40
2023-01-03T02:03:32.719Z,1.90
2023-01-03T02:03:42.610Z,1.60
2023-01-03T02:03:52.651Z,1.80
2023-01-03T02:04:02.679Z,1.10
2023-01-03T02:04:12.564Z,1.10
2023-01-03T02:04:22.571Z,0.90
2023-01-03T02:04:32.611Z,0.90
2023-01-03T02:04:42.673Z,1.30
2023-01-03T02:04:52.623Z,1.40
2023-01-03T02:05:02.652Z,1.40
2023-01-03T02:05:12.713Z,1.10
2023-01-03T02:05:22.592Z,1.10
2023-01-03T02:05:32.662Z,1.30
2023-01-03T02:05:42.645Z,1.70
2023-01-03T02:05:52.615Z,1.80
2023-01-03T02:06:02.585Z,1.60
2023-01-03T02:06:12.623Z,1.30
2023-01-03T02:06:22.568Z,1.30
2023-01-03T02:06:32.674Z,1.50
2023-01-03T02:06:42.619Z,1.40
2023-01-03T02:06:52.676Z,1.20
2023-01-03T02:07:02.701Z,1.20
2023-01-03T02:07:12.569Z,1.30
2023-01-03T02:07:22.674Z,1.40
2023-01-03T02:07:32.625Z,1.60
2023-01-03T02:07:42.621Z,1.50
2023-01-03T02:07:52.597Z,1.40
2023-01-03T02:08:02.669Z,1.40
2023-01-03T02:08:12.565Z,1.40
2023-01-03T02:08:22.572Z,1.70
2023-01-03T02:08:32.685Z,1.60
2023-01-03T02:08:42.566Z,1.40
2023-01-03T02:08:52.584Z,1.60
2023-01-03T02:09:02.566Z,1.60
2023-01-03T02:09:12.583Z,1.70
2023-01-03T02:09:22.632Z,1.30
2023-01-03T02:09:32.636Z,1.40
2023-01-03T02:09:42.606Z,1.30
2023-01-03T02:09:52.601Z,1.70
2023-01-03T02:10:02.706Z,1.80
2023-01-03T02:10:12.589Z,3.50
2023-01-03T02:10:22.565Z,2.90
2023-01-03T02:10:32.681Z,2.50
2023-01-03T02:10:42.563Z,1.20
2023-01-03T02:10:52.642Z,1.20
2023-01-03T02:11:02.584Z,1.30
2023-01-03T02:11:12.692Z,1.10
2023-01-03T02:11:22.647Z,1.20
2023-01-03T02:11:32.666Z,0.90
2023-01-03T02:11:42.562Z,1.90
2023-01-03T02:11:52.674Z,2.30
2023-01-03T02:12:02.558Z,2.60
2023-01-03T02:12:12.567Z,1.60
2023-01-03T02:12:22.638Z,1.30
2023-01-03T02:12:32.560Z,1.20
2023-01-03T02:12:42.594Z,1.10
2023-01-03T02:12:52.632Z,1.20
2023-01-03T02:13:02.617Z,1.40